sensor_id;sensor_type;location;lat;lon;timestamp;P1;durP1;ratioP1;P2;durP2;ratioP2
13238;SDS011;6686;51.292;4.166;2022-12-18T00:02:42;43.17;;;21.40;;
13238;SDS011;6686;51.292;4.166;2022-12-18T00:05:28;40.57;;;22.73;;
13238;SDS011;6686;51.292;4.166;2022-12-18T00:08:14;38.17;;;21.93;;
13238;SDS011;6686;51.292;4.166;2022-12-18T00:11:06;41.67;;;21.40;;
13238;SDS011;6686;51.292;4.166;2022-12-18T00:13:53;43.70;;;22.37;;
13238;SDS011;6686;51.292;4.166;2022-12-18T00:16:37;43.80;;;23.13;;
13238;SDS011;6686;51.292;4.166;2022-12-18T00:19:23;40.40;;;21.60;;
13238;SDS011;6686;51.292;4.166;2022-12-18T00:22:08;43.63;;;22.20;;
13238;SDS011;6686;51.292;4.166;2022-12-18T00:24:55;39.60;;;21.03;;
13238;SDS011;6686;51.292;4.166;2022-12-18T00:27:41;45.17;;;22.63;;
13238;SDS011;6686;51.292;4.166;2022-12-18T00:30:26;46.47;;;24.20;;
13238;SDS011;6686;51.292;4.166;2022-12-18T00:33:12;38.17;;;22.20;;
13238;SDS011;6686;51.292;4.166;2022-12-18T00:36:01;43.60;;;23.17;;
13238;SDS011;6686;51.292;4.166;2022-12-18T00:38:47;41.23;;;21.57;;
13238;SDS011;6686;51.292;4.166;2022-12-18T00:41:33;50.72;;;28.70;;
13238;SDS011;6686;51.292;4.166;2022-12-18T00:44:24;46.25;;;28.92;;
13238;SDS011;6686;51.292;4.166;2022-12-18T00:47:10;38.60;;;23.17;;
13238;SDS011;6686;51.292;4.166;2022-12-18T00:49:56;41.87;;;22.97;;
13238;SDS011;6686;51.292;4.166;2022-12-18T00:52:42;41.40;;;23.13;;
13238;SDS011;6686;51.292;4.166;2022-12-18T00:55:28;44.43;;;21.53;;
13238;SDS011;6686;51.292;4.166;2022-12-18T00:58:15;44.17;;;22.00;;
13238;SDS011;6686;51.292;4.166;2022-12-18T01:01:00;43.90;;;21.60;;
13238;SDS011;6686;51.292;4.166;2022-12-18T01:03:45;45.17;;;22.77;;
13238;SDS011;6686;51.292;4.166;2022-12-18T01:06:31;37.57;;;21.87;;
13238;SDS011;6686;51.292;4.166;2022-12-18T01:09:17;41.93;;;22.77;;
13238;SDS011;6686;51.292;4.166;2022-12-18T01:12:02;52.38;;;30.05;;
13238;SDS011;6686;51.292;4.166;2022-12-18T01:14:48;49.20;;;29.53;;
13238;SDS011;6686;51.292;4.166;2022-12-18T01:17:34;48.73;;;25.30;;
13238;SDS011;6686;51.292;4.166;2022-12-18T01:20:20;47.00;;;24.27;;
13238;SDS011;6686;51.292;4.166;2022-12-18T01:23:07;49.87;;;23.50;;
13238;SDS011;6686;51.292;4.166;2022-12-18T01:25:52;40.93;;;22.73;;
13238;SDS011;6686;51.292;4.166;2022-12-18T01:28:38;46.27;;;23.43;;
13238;SDS011;6686;51.292;4.166;2022-12-18T01:31:24;47.07;;;22.73;;
13238;SDS011;6686;51.292;4.166;2022-12-18T01:34:09;45.27;;;22.67;;
13238;SDS011;6686;51.292;4.166;2022-12-18T01:36:55;40.37;;;22.30;;
13238;SDS011;6686;51.292;4.166;2022-12-18T01:39:40;47.97;;;22.83;;
13238;SDS011;6686;51.292;4.166;2022-12-18T01:42:26;44.43;;;21.93;;
13238;SDS011;6686;51.292;4.166;2022-12-18T01:48:03;38.83;;;20.93;;
13238;SDS011;6686;51.292;4.166;2022-12-18T01:50:47;40.67;;;22.63;;
13238;SDS011;6686;51.292;4.166;2022-12-18T01:53:33;43.20;;;22.50;;
13238;SDS011;6686;51.292;4.166;2022-12-18T01:56:19;38.07;;;22.23;;
13238;SDS011;6686;51.292;4.166;2022-12-18T01:59:07;45.33;;;22.83;;
13238;SDS011;6686;51.292;4.166;2022-12-18T02:01:53;43.27;;;22.27;;
13238;SDS011;6686;51.292;4.166;2022-12-18T02:04:39;45.23;;;22.90;;
13238;SDS011;6686;51.292;4.166;2022-12-18T02:07:29;40.97;;;21.13;;
13238;SDS011;6686;51.292;4.166;2022-12-18T02:10:20;42.40;;;20.67;;
13238;SDS011;6686;51.292;4.166;2022-12-18T02:19:06;42.23;;;22.30;;
13238;SDS011;6686;51.292;4.166;2022-12-18T02:21:55;50.53;;;29.77;;
13238;SDS011;6686;51.292;4.166;2022-12-18T02:24:42;50.37;;;25.73;;
13238;SDS011;6686;51.292;4.166;2022-12-18T02:27:37;47.83;;;23.83;;
13238;SDS011;6686;51.292;4.166;2022-12-18T02:30:23;52.63;;;24.27;;
13238;SDS011;6686;51.292;4.166;2022-12-18T02:33:09;44.07;;;22.80;;
13238;SDS011;6686;51.292;4.166;2022-12-18T02:35:54;42.13;;;22.40;;
13238;SDS011;6686;51.292;4.166;2022-12-18T02:38:43;47.00;;;23.73;;
13238;SDS011;6686;51.292;4.166;2022-12-18T02:41:29;50.42;;;28.35;;
13238;SDS011;6686;51.292;4.166;2022-12-18T02:44:14;46.20;;;24.67;;
13238;SDS011;6686;51.292;4.166;2022-12-18T02:47:00;40.13;;;21.17;;
13238;SDS011;6686;51.292;4.166;2022-12-18T02:49:53;38.70;;;21.60;;
13238;SDS011;6686;51.292;4.166;2022-12-18T02:59:12;39.03;;;19.93;;
13238;SDS011;6686;51.292;4.166;2022-12-18T03:02:04;37.47;;;21.93;;
13238;SDS011;6686;51.292;4.166;2022-12-18T03:04:45;43.50;;;21.07;;
13238;SDS011;6686;51.292;4.166;2022-12-18T03:07:46;47.83;;;27.95;;
13238;SDS011;6686;51.292;4.166;2022-12-18T03:10:28;37.77;;;22.57;;
13238;SDS011;6686;51.292;4.166;2022-12-18T03:13:14;39.70;;;21.60;;
13238;SDS011;6686;51.292;4.166;2022-12-18T03:15:59;37.03;;;20.93;;
13238;SDS011;6686;51.292;4.166;2022-12-18T03:18:49;38.17;;;20.23;;
13238;SDS011;6686;51.292;4.166;2022-12-18T03:21:45;34.23;;;19.23;;
13238;SDS011;6686;51.292;4.166;2022-12-18T03:24:33;35.10;;;18.83;;
13238;SDS011;6686;51.292;4.166;2022-12-18T03:27:19;34.30;;;18.77;;
13238;SDS011;6686;51.292;4.166;2022-12-18T03:30:08;31.47;;;17.73;;
13238;SDS011;6686;51.292;4.166;2022-12-18T03:32:55;32.93;;;16.90;;
13238;SDS011;6686;51.292;4.166;2022-12-18T03:35:40;38.33;;;18.53;;
13238;SDS011;6686;51.292;4.166;2022-12-18T03:38:24;37.83;;;18.47;;
13238;SDS011;6686;51.292;4.166;2022-12-18T03:41:24;30.60;;;18.10;;
13238;SDS011;6686;51.292;4.166;2022-12-18T03:50:45;30.93;;;16.93;;
13238;SDS011;6686;51.292;4.166;2022-12-18T03:56:40;37.30;;;21.75;;
13238;SDS011;6686;51.292;4.166;2022-12-18T03:59:25;31.80;;;17.63;;
13238;SDS011;6686;51.292;4.166;2022-12-18T04:02:11;27.00;;;16.80;;
13238;SDS011;6686;51.292;4.166;2022-12-18T04:04:57;32.93;;;17.23;;
13238;SDS011;6686;51.292;4.166;2022-12-18T04:07:42;31.03;;;16.00;;
13238;SDS011;6686;51.292;4.166;2022-12-18T04:10:28;29.00;;;16.37;;
13238;SDS011;6686;51.292;4.166;2022-12-18T04:13:21;29.80;;;15.53;;
13238;SDS011;6686;51.292;4.166;2022-12-18T04:16:00;34.13;;;21.42;;
13238;SDS011;6686;51.292;4.166;2022-12-18T04:18:48;30.33;;;18.20;;
13238;SDS011;6686;51.292;4.166;2022-12-18T04:21:33;32.37;;;20.60;;
13238;SDS011;6686;51.292;4.166;2022-12-18T04:24:19;30.27;;;18.90;;
13238;SDS011;6686;51.292;4.166;2022-12-18T04:27:04;27.45;;;18.27;;
13238;SDS011;6686;51.292;4.166;2022-12-18T04:29:50;26.90;;;15.83;;
13238;SDS011;6686;51.292;4.166;2022-12-18T04:32:36;24.77;;;14.90;;
13238;SDS011;6686;51.292;4.166;2022-12-18T04:35:22;23.20;;;13.67;;
13238;SDS011;6686;51.292;4.166;2022-12-18T04:38:08;28.43;;;14.37;;
13238;SDS011;6686;51.292;4.166;2022-12-18T04:40:53;21.80;;;14.37;;
13238;SDS011;6686;51.292;4.166;2022-12-18T04:43:39;27.53;;;15.83;;
13238;SDS011;6686;51.292;4.166;2022-12-18T04:46:25;27.20;;;15.30;;
13238;SDS011;6686;51.292;4.166;2022-12-18T04:49:10;24.27;;;14.43;;
13238;SDS011;6686;51.292;4.166;2022-12-18T04:51:56;30.53;;;16.20;;
13238;SDS011;6686;51.292;4.166;2022-12-18T04:54:42;26.77;;;15.47;;
13238;SDS011;6686;51.292;4.166;2022-12-18T04:57:28;28.20;;;14.10;;
13238;SDS011;6686;51.292;4.166;2022-12-18T05:00:13;23.43;;;14.03;;
13238;SDS011;6686;51.292;4.166;2022-12-18T05:03:00;26.40;;;15.40;;
13238;SDS011;6686;51.292;4.166;2022-12-18T05:05:48;26.87;;;15.63;;
13238;SDS011;6686;51.292;4.166;2022-12-18T05:08:31;26.10;;;14.63;;
13238;SDS011;6686;51.292;4.166;2022-12-18T05:11:16;23.73;;;14.93;;
13238;SDS011;6686;51.292;4.166;2022-12-18T05:14:02;27.43;;;15.57;;
13238;SDS011;6686;51.292;4.166;2022-12-18T05:16:48;23.80;;;14.67;;
13238;SDS011;6686;51.292;4.166;2022-12-18T05:19:33;25.27;;;12.77;;
13238;SDS011;6686;51.292;4.166;2022-12-18T05:22:19;22.37;;;12.27;;
13238;SDS011;6686;51.292;4.166;2022-12-18T05:25:05;26.57;;;14.43;;
13238;SDS011;6686;51.292;4.166;2022-12-18T05:27:51;25.62;;;17.12;;
13238;SDS011;6686;51.292;4.166;2022-12-18T05:30:36;24.97;;;15.07;;
13238;SDS011;6686;51.292;4.166;2022-12-18T05:33:24;21.53;;;13.53;;
13238;SDS011;6686;51.292;4.166;2022-12-18T05:36:08;21.17;;;13.23;;
13238;SDS011;6686;51.292;4.166;2022-12-18T05:38:54;17.37;;;12.00;;
13238;SDS011;6686;51.292;4.166;2022-12-18T05:41:39;20.10;;;11.43;;
13238;SDS011;6686;51.292;4.166;2022-12-18T05:44:28;18.63;;;11.10;;
13238;SDS011;6686;51.292;4.166;2022-12-18T05:47:15;14.93;;;9.50;;
13238;SDS011;6686;51.292;4.166;2022-12-18T05:50:01;19.73;;;10.13;;
13238;SDS011;6686;51.292;4.166;2022-12-18T05:52:46;18.90;;;10.67;;
13238;SDS011;6686;51.292;4.166;2022-12-18T05:55:35;14.77;;;9.83;;
13238;SDS011;6686;51.292;4.166;2022-12-18T05:58:22;15.83;;;9.30;;
13238;SDS011;6686;51.292;4.166;2022-12-18T06:01:14;11.50;;;8.10;;
13238;SDS011;6686;51.292;4.166;2022-12-18T06:03:58;15.07;;;9.03;;
13238;SDS011;6686;51.292;4.166;2022-12-18T06:06:43;16.70;;;11.38;;
13238;SDS011;6686;51.292;4.166;2022-12-18T06:09:29;16.77;;;11.03;;
13238;SDS011;6686;51.292;4.166;2022-12-18T06:12:15;18.70;;;11.13;;
13238;SDS011;6686;51.292;4.166;2022-12-18T06:15:00;21.62;;;13.50;;
13238;SDS011;6686;51.292;4.166;2022-12-18T06:17:46;21.10;;;11.27;;
13238;SDS011;6686;51.292;4.166;2022-12-18T06:20:32;17.03;;;11.67;;
13238;SDS011;6686;51.292;4.166;2022-12-18T06:23:17;18.33;;;11.07;;
13238;SDS011;6686;51.292;4.166;2022-12-18T06:26:06;20.93;;;10.47;;
13238;SDS011;6686;51.292;4.166;2022-12-18T06:28:52;17.37;;;10.90;;
13238;SDS011;6686;51.292;4.166;2022-12-18T06:31:38;19.13;;;11.87;;
13238;SDS011;6686;51.292;4.166;2022-12-18T06:34:24;14.80;;;10.57;;
13238;SDS011;6686;51.292;4.166;2022-12-18T06:37:10;17.17;;;11.37;;
13238;SDS011;6686;51.292;4.166;2022-12-18T06:39:56;18.27;;;11.83;;
13238;SDS011;6686;51.292;4.166;2022-12-18T06:42:41;16.13;;;11.17;;
13238;SDS011;6686;51.292;4.166;2022-12-18T06:45:26;17.73;;;10.90;;
13238;SDS011;6686;51.292;4.166;2022-12-18T06:48:12;21.57;;;11.53;;
13238;SDS011;6686;51.292;4.166;2022-12-18T06:50:58;18.10;;;11.57;;
13238;SDS011;6686;51.292;4.166;2022-12-18T06:53:45;17.23;;;10.83;;
13238;SDS011;6686;51.292;4.166;2022-12-18T06:56:31;21.35;;;14.43;;
13238;SDS011;6686;51.292;4.166;2022-12-18T06:59:19;18.63;;;12.00;;
13238;SDS011;6686;51.292;4.166;2022-12-18T07:02:05;17.07;;;11.00;;
13238;SDS011;6686;51.292;4.166;2022-12-18T07:04:52;22.40;;;13.48;;
13238;SDS011;6686;51.292;4.166;2022-12-18T07:07:37;18.67;;;12.47;;
13238;SDS011;6686;51.292;4.166;2022-12-18T07:10:23;16.23;;;10.90;;
13238;SDS011;6686;51.292;4.166;2022-12-18T07:13:09;17.33;;;9.80;;
13238;SDS011;6686;51.292;4.166;2022-12-18T07:15:54;14.83;;;9.83;;
13238;SDS011;6686;51.292;4.166;2022-12-18T07:18:42;16.37;;;9.30;;
13238;SDS011;6686;51.292;4.166;2022-12-18T07:21:27;16.47;;;9.47;;
13238;SDS011;6686;51.292;4.166;2022-12-18T07:24:13;15.27;;;9.33;;
13238;SDS011;6686;51.292;4.166;2022-12-18T07:27:02;14.37;;;9.37;;
13238;SDS011;6686;51.292;4.166;2022-12-18T07:29:51;18.87;;;9.70;;
13238;SDS011;6686;51.292;4.166;2022-12-18T07:32:36;16.03;;;8.83;;
13238;SDS011;6686;51.292;4.166;2022-12-18T07:35:22;14.27;;;8.90;;
13238;SDS011;6686;51.292;4.166;2022-12-18T07:38:07;17.03;;;9.40;;
13238;SDS011;6686;51.292;4.166;2022-12-18T07:40:54;15.97;;;9.07;;
13238;SDS011;6686;51.292;4.166;2022-12-18T07:43:40;15.50;;;8.87;;
13238;SDS011;6686;51.292;4.166;2022-12-18T07:46:28;15.63;;;9.60;;
13238;SDS011;6686;51.292;4.166;2022-12-18T07:49:15;17.00;;;10.10;;
13238;SDS011;6686;51.292;4.166;2022-12-18T07:52:01;17.13;;;10.93;;
13238;SDS011;6686;51.292;4.166;2022-12-18T07:54:47;17.30;;;11.80;;
13238;SDS011;6686;51.292;4.166;2022-12-18T07:57:32;13.10;;;10.07;;
13238;SDS011;6686;51.292;4.166;2022-12-18T08:00:21;17.70;;;10.47;;
13238;SDS011;6686;51.292;4.166;2022-12-18T08:03:07;16.50;;;11.15;;
13238;SDS011;6686;51.292;4.166;2022-12-18T08:05:52;14.80;;;10.70;;
13238;SDS011;6686;51.292;4.166;2022-12-18T08:08:38;15.50;;;10.43;;
13238;SDS011;6686;51.292;4.166;2022-12-18T08:11:25;13.60;;;9.70;;
13238;SDS011;6686;51.292;4.166;2022-12-18T08:14:11;17.87;;;9.77;;
13238;SDS011;6686;51.292;4.166;2022-12-18T08:16:57;10.67;;;8.27;;
13238;SDS011;6686;51.292;4.166;2022-12-18T08:19:43;12.90;;;8.17;;
13238;SDS011;6686;51.292;4.166;2022-12-18T08:22:29;15.50;;;8.30;;
13238;SDS011;6686;51.292;4.166;2022-12-18T08:25:15;13.50;;;8.37;;
13238;SDS011;6686;51.292;4.166;2022-12-18T08:28:01;12.90;;;7.47;;
13238;SDS011;6686;51.292;4.166;2022-12-18T08:30:48;14.57;;;8.17;;
13238;SDS011;6686;51.292;4.166;2022-12-18T08:33:35;20.70;;;14.10;;
13238;SDS011;6686;51.292;4.166;2022-12-18T08:36:21;14.60;;;9.70;;
13238;SDS011;6686;51.292;4.166;2022-12-18T08:39:06;13.03;;;9.30;;
13238;SDS011;6686;51.292;4.166;2022-12-18T08:41:52;15.13;;;9.07;;
13238;SDS011;6686;51.292;4.166;2022-12-18T08:44:56;10.73;;;7.47;;
13238;SDS011;6686;51.292;4.166;2022-12-18T08:47:42;14.70;;;8.73;;
13238;SDS011;6686;51.292;4.166;2022-12-18T08:50:27;11.50;;;8.33;;
13238;SDS011;6686;51.292;4.166;2022-12-18T08:53:13;15.87;;;11.17;;
13238;SDS011;6686;51.292;4.166;2022-12-18T08:56:00;14.07;;;8.90;;
13238;SDS011;6686;51.292;4.166;2022-12-18T08:58:45;11.37;;;8.93;;
13238;SDS011;6686;51.292;4.166;2022-12-18T09:01:34;11.90;;;8.43;;
13238;SDS011;6686;51.292;4.166;2022-12-18T09:04:19;13.43;;;7.97;;
13238;SDS011;6686;51.292;4.166;2022-12-18T09:07:05;15.60;;;10.97;;
13238;SDS011;6686;51.292;4.166;2022-12-18T09:09:51;13.03;;;8.70;;
13238;SDS011;6686;51.292;4.166;2022-12-18T09:12:36;12.60;;;8.40;;
13238;SDS011;6686;51.292;4.166;2022-12-18T09:15:22;14.50;;;9.57;;
13238;SDS011;6686;51.292;4.166;2022-12-18T09:18:07;15.20;;;9.80;;
13238;SDS011;6686;51.292;4.166;2022-12-18T09:20:53;12.83;;;7.90;;
13238;SDS011;6686;51.292;4.166;2022-12-18T09:23:39;14.60;;;9.33;;
13238;SDS011;6686;51.292;4.166;2022-12-18T09:26:25;12.97;;;9.47;;
13238;SDS011;6686;51.292;4.166;2022-12-18T09:29:10;14.37;;;9.03;;
13238;SDS011;6686;51.292;4.166;2022-12-18T09:31:56;14.63;;;9.80;;
13238;SDS011;6686;51.292;4.166;2022-12-18T09:34:41;15.37;;;8.97;;
13238;SDS011;6686;51.292;4.166;2022-12-18T09:37:27;17.37;;;10.93;;
13238;SDS011;6686;51.292;4.166;2022-12-18T09:40:16;14.03;;;8.50;;
13238;SDS011;6686;51.292;4.166;2022-12-18T09:43:03;12.30;;;9.63;;
13238;SDS011;6686;51.292;4.166;2022-12-18T09:45:58;14.40;;;8.23;;
13238;SDS011;6686;51.292;4.166;2022-12-18T09:48:51;19.07;;;13.97;;
13238;SDS011;6686;51.292;4.166;2022-12-18T09:51:37;28.77;;;20.23;;
13238;SDS011;6686;51.292;4.166;2022-12-18T09:54:40;15.80;;;12.17;;
13238;SDS011;6686;51.292;4.166;2022-12-18T09:57:26;10.90;;;8.10;;
13238;SDS011;6686;51.292;4.166;2022-12-18T10:00:15;15.18;;;10.98;;
13238;SDS011;6686;51.292;4.166;2022-12-18T10:03:01;11.57;;;8.60;;
13238;SDS011;6686;51.292;4.166;2022-12-18T10:06:01;15.63;;;9.87;;
13238;SDS011;6686;51.292;4.166;2022-12-18T10:08:51;12.43;;;8.93;;
13238;SDS011;6686;51.292;4.166;2022-12-18T10:14:52;11.43;;;7.53;;
13238;SDS011;6686;51.292;4.166;2022-12-18T10:17:51;8.93;;;7.30;;
13238;SDS011;6686;51.292;4.166;2022-12-18T10:20:38;14.20;;;8.37;;
13238;SDS011;6686;51.292;4.166;2022-12-18T10:26:12;11.87;;;7.83;;
13238;SDS011;6686;51.292;4.166;2022-12-18T10:28:58;11.23;;;7.87;;
13238;SDS011;6686;51.292;4.166;2022-12-18T10:31:43;15.57;;;10.87;;
13238;SDS011;6686;51.292;4.166;2022-12-18T10:34:29;10.53;;;7.83;;
13238;SDS011;6686;51.292;4.166;2022-12-18T10:37:19;15.20;;;9.07;;
13238;SDS011;6686;51.292;4.166;2022-12-18T10:40:14;15.47;;;13.10;;
13238;SDS011;6686;51.292;4.166;2022-12-18T10:43:13;13.17;;;9.67;;
13238;SDS011;6686;51.292;4.166;2022-12-18T10:46:03;14.83;;;10.67;;
13238;SDS011;6686;51.292;4.166;2022-12-18T10:51:45;11.50;;;8.40;;
13238;SDS011;6686;51.292;4.166;2022-12-18T10:54:36;11.87;;;8.43;;
13238;SDS011;6686;51.292;4.166;2022-12-18T10:57:34;12.87;;;8.80;;
13238;SDS011;6686;51.292;4.166;2022-12-18T11:00:28;14.00;;;8.70;;
13238;SDS011;6686;51.292;4.166;2022-12-18T11:03:30;12.33;;;8.97;;
13238;SDS011;6686;51.292;4.166;2022-12-18T11:06:15;13.70;;;9.07;;
13238;SDS011;6686;51.292;4.166;2022-12-18T11:09:01;11.80;;;9.00;;
13238;SDS011;6686;51.292;4.166;2022-12-18T11:11:53;13.63;;;8.33;;
13238;SDS011;6686;51.292;4.166;2022-12-18T11:14:42;12.33;;;8.70;;
13238;SDS011;6686;51.292;4.166;2022-12-18T11:17:32;11.63;;;8.43;;
13238;SDS011;6686;51.292;4.166;2022-12-18T11:23:18;16.10;;;11.83;;
13238;SDS011;6686;51.292;4.166;2022-12-18T11:26:03;14.48;;;11.12;;
13238;SDS011;6686;51.292;4.166;2022-12-18T11:29:07;12.03;;;9.27;;
13238;SDS011;6686;51.292;4.166;2022-12-18T11:31:42;13.53;;;9.40;;
13238;SDS011;6686;51.292;4.166;2022-12-18T11:34:29;12.17;;;8.83;;
13238;SDS011;6686;51.292;4.166;2022-12-18T11:37:13;12.83;;;9.37;;
13238;SDS011;6686;51.292;4.166;2022-12-18T11:40:01;16.60;;;10.57;;
13238;SDS011;6686;51.292;4.166;2022-12-18T11:42:59;16.13;;;9.60;;
13238;SDS011;6686;51.292;4.166;2022-12-18T11:45:53;15.07;;;9.40;;
13238;SDS011;6686;51.292;4.166;2022-12-18T11:48:37;16.12;;;11.75;;
13238;SDS011;6686;51.292;4.166;2022-12-18T11:51:41;13.97;;;9.90;;
13238;SDS011;6686;51.292;4.166;2022-12-18T11:54:20;15.43;;;10.70;;
13238;SDS011;6686;51.292;4.166;2022-12-18T12:00:03;18.25;;;13.00;;
13238;SDS011;6686;51.292;4.166;2022-12-18T12:03:02;15.60;;;10.80;;
13238;SDS011;6686;51.292;4.166;2022-12-18T12:08:57;13.50;;;9.60;;
13238;SDS011;6686;51.292;4.166;2022-12-18T12:12:02;11.30;;;9.10;;
13238;SDS011;6686;51.292;4.166;2022-12-18T12:17:53;16.37;;;10.13;;
13238;SDS011;6686;51.292;4.166;2022-12-18T12:33:01;15.00;;;10.90;;
13238;SDS011;6686;51.292;4.166;2022-12-18T12:35:28;18.40;;;10.67;;
13238;SDS011;6686;51.292;4.166;2022-12-18T12:38:24;17.30;;;11.27;;
13238;SDS011;6686;51.292;4.166;2022-12-18T12:41:06;18.73;;;10.37;;
13238;SDS011;6686;51.292;4.166;2022-12-18T12:43:50;15.40;;;10.87;;
13238;SDS011;6686;51.292;4.166;2022-12-18T12:46:36;16.70;;;10.67;;
13238;SDS011;6686;51.292;4.166;2022-12-18T12:49:22;16.63;;;11.63;;
13238;SDS011;6686;51.292;4.166;2022-12-18T12:52:10;15.60;;;10.40;;
13238;SDS011;6686;51.292;4.166;2022-12-18T12:54:53;15.00;;;9.73;;
13238;SDS011;6686;51.292;4.166;2022-12-18T12:57:51;16.97;;;11.30;;
13238;SDS011;6686;51.292;4.166;2022-12-18T13:03:42;15.97;;;11.00;;
13238;SDS011;6686;51.292;4.166;2022-12-18T13:13:06;16.10;;;11.33;;
13238;SDS011;6686;51.292;4.166;2022-12-18T13:16:06;14.27;;;11.03;;
13238;SDS011;6686;51.292;4.166;2022-12-18T13:18:52;17.47;;;11.63;;
13238;SDS011;6686;51.292;4.166;2022-12-18T13:21:37;15.30;;;11.53;;
13238;SDS011;6686;51.292;4.166;2022-12-18T13:24:25;15.80;;;11.03;;
13238;SDS011;6686;51.292;4.166;2022-12-18T13:33:34;15.23;;;11.20;;
13238;SDS011;6686;51.292;4.166;2022-12-18T13:36:42;16.83;;;11.33;;
13238;SDS011;6686;51.292;4.166;2022-12-18T13:39:09;16.27;;;11.43;;
13238;SDS011;6686;51.292;4.166;2022-12-18T13:44:51;16.17;;;11.27;;
13238;SDS011;6686;51.292;4.166;2022-12-18T13:47:40;17.13;;;11.57;;
13238;SDS011;6686;51.292;4.166;2022-12-18T13:50:26;17.27;;;11.73;;
13238;SDS011;6686;51.292;4.166;2022-12-18T13:53:16;19.37;;;13.47;;
13238;SDS011;6686;51.292;4.166;2022-12-18T13:55:58;19.87;;;13.53;;
13238;SDS011;6686;51.292;4.166;2022-12-18T13:58:43;22.30;;;13.03;;
13238;SDS011;6686;51.292;4.166;2022-12-18T14:01:29;19.70;;;13.83;;
13238;SDS011;6686;51.292;4.166;2022-12-18T14:04:19;21.97;;;13.57;;
13238;SDS011;6686;51.292;4.166;2022-12-18T14:07:12;16.97;;;12.27;;
13238;SDS011;6686;51.292;4.166;2022-12-18T14:09:58;19.63;;;12.93;;
13238;SDS011;6686;51.292;4.166;2022-12-18T14:12:47;22.90;;;14.13;;
13238;SDS011;6686;51.292;4.166;2022-12-18T14:15:41;17.10;;;12.60;;
13238;SDS011;6686;51.292;4.166;2022-12-18T14:18:38;17.20;;;12.87;;
13238;SDS011;6686;51.292;4.166;2022-12-18T14:21:23;17.00;;;13.17;;
13238;SDS011;6686;51.292;4.166;2022-12-18T14:24:17;18.80;;;13.17;;
13238;SDS011;6686;51.292;4.166;2022-12-18T14:27:12;20.57;;;13.43;;
13238;SDS011;6686;51.292;4.166;2022-12-18T14:29:56;19.33;;;12.53;;
13238;SDS011;6686;51.292;4.166;2022-12-18T14:32:42;19.13;;;13.43;;
13238;SDS011;6686;51.292;4.166;2022-12-18T14:35:27;23.50;;;13.37;;
13238;SDS011;6686;51.292;4.166;2022-12-18T14:38:30;21.43;;;13.27;;
13238;SDS011;6686;51.292;4.166;2022-12-18T14:41:17;21.13;;;13.70;;
13238;SDS011;6686;51.292;4.166;2022-12-18T14:44:05;17.73;;;12.20;;
13238;SDS011;6686;51.292;4.166;2022-12-18T14:46:49;20.13;;;13.43;;
13238;SDS011;6686;51.292;4.166;2022-12-18T14:49:34;18.43;;;13.13;;
13238;SDS011;6686;51.292;4.166;2022-12-18T14:52:24;21.27;;;13.50;;
13238;SDS011;6686;51.292;4.166;2022-12-18T14:55:16;19.83;;;13.47;;
13238;SDS011;6686;51.292;4.166;2022-12-18T14:58:00;17.53;;;13.03;;
13238;SDS011;6686;51.292;4.166;2022-12-18T15:00:46;19.07;;;13.77;;
13238;SDS011;6686;51.292;4.166;2022-12-18T15:03:32;23.83;;;14.73;;
13238;SDS011;6686;51.292;4.166;2022-12-18T15:06:23;25.30;;;15.60;;
13238;SDS011;6686;51.292;4.166;2022-12-18T15:09:05;23.40;;;16.30;;
13238;SDS011;6686;51.292;4.166;2022-12-18T15:11:49;24.23;;;15.73;;
13238;SDS011;6686;51.292;4.166;2022-12-18T15:17:41;25.13;;;15.17;;
13238;SDS011;6686;51.292;4.166;2022-12-18T15:20:27;22.87;;;14.73;;
13238;SDS011;6686;51.292;4.166;2022-12-18T15:23:14;23.87;;;14.27;;
13238;SDS011;6686;51.292;4.166;2022-12-18T15:26:01;20.80;;;14.53;;
13238;SDS011;6686;51.292;4.166;2022-12-18T15:28:53;21.20;;;14.60;;
13238;SDS011;6686;51.292;4.166;2022-12-18T15:31:38;22.00;;;14.93;;
13238;SDS011;6686;51.292;4.166;2022-12-18T15:34:24;22.63;;;14.67;;
13238;SDS011;6686;51.292;4.166;2022-12-18T15:37:10;22.43;;;15.73;;
13238;SDS011;6686;51.292;4.166;2022-12-18T15:39:56;24.13;;;14.63;;
13238;SDS011;6686;51.292;4.166;2022-12-18T15:42:41;24.27;;;15.03;;
13238;SDS011;6686;51.292;4.166;2022-12-18T15:45:45;23.07;;;14.60;;
13238;SDS011;6686;51.292;4.166;2022-12-18T15:48:32;21.10;;;14.70;;
13238;SDS011;6686;51.292;4.166;2022-12-18T15:51:24;22.60;;;14.20;;
13238;SDS011;6686;51.292;4.166;2022-12-18T15:54:06;25.80;;;14.70;;
13238;SDS011;6686;51.292;4.166;2022-12-18T15:56:51;23.00;;;16.63;;
13238;SDS011;6686;51.292;4.166;2022-12-18T15:59:56;24.58;;;18.12;;
13238;SDS011;6686;51.292;4.166;2022-12-18T16:02:42;26.17;;;16.27;;
13238;SDS011;6686;51.292;4.166;2022-12-18T16:05:28;21.23;;;15.33;;
13238;SDS011;6686;51.292;4.166;2022-12-18T16:08:14;23.47;;;15.60;;
13238;SDS011;6686;51.292;4.166;2022-12-18T16:10:59;23.80;;;15.33;;
13238;SDS011;6686;51.292;4.166;2022-12-18T16:13:45;24.63;;;16.17;;
13238;SDS011;6686;51.292;4.166;2022-12-18T16:16:31;27.73;;;15.73;;
13238;SDS011;6686;51.292;4.166;2022-12-18T16:19:16;22.13;;;15.30;;
13238;SDS011;6686;51.292;4.166;2022-12-18T16:22:02;24.97;;;16.57;;
13238;SDS011;6686;51.292;4.166;2022-12-18T16:24:48;24.73;;;17.07;;
13238;SDS011;6686;51.292;4.166;2022-12-18T16:27:34;23.13;;;15.63;;
13238;SDS011;6686;51.292;4.166;2022-12-18T16:30:22;25.57;;;16.20;;
13238;SDS011;6686;51.292;4.166;2022-12-18T16:33:09;26.27;;;16.73;;
13238;SDS011;6686;51.292;4.166;2022-12-18T16:35:54;25.37;;;18.00;;
13238;SDS011;6686;51.292;4.166;2022-12-18T16:38:39;27.13;;;17.13;;
13238;SDS011;6686;51.292;4.166;2022-12-18T16:41:25;25.63;;;16.03;;
13238;SDS011;6686;51.292;4.166;2022-12-18T16:44:17;26.10;;;17.77;;
13238;SDS011;6686;51.292;4.166;2022-12-18T16:47:02;28.90;;;17.30;;
13238;SDS011;6686;51.292;4.166;2022-12-18T16:49:47;24.20;;;15.90;;
13238;SDS011;6686;51.292;4.166;2022-12-18T16:52:33;25.40;;;16.50;;
13238;SDS011;6686;51.292;4.166;2022-12-18T16:55:20;30.12;;;20.88;;
13238;SDS011;6686;51.292;4.166;2022-12-18T16:58:05;30.73;;;19.17;;
13238;SDS011;6686;51.292;4.166;2022-12-18T17:00:51;29.83;;;21.08;;
13238;SDS011;6686;51.292;4.166;2022-12-18T17:03:37;29.80;;;18.93;;
13238;SDS011;6686;51.292;4.166;2022-12-18T17:06:23;25.33;;;16.70;;
13238;SDS011;6686;51.292;4.166;2022-12-18T17:09:10;24.93;;;16.77;;
13238;SDS011;6686;51.292;4.166;2022-12-18T17:11:54;25.33;;;15.93;;
13238;SDS011;6686;51.292;4.166;2022-12-18T17:14:40;26.00;;;16.80;;
13238;SDS011;6686;51.292;4.166;2022-12-18T17:17:26;27.97;;;16.57;;
13238;SDS011;6686;51.292;4.166;2022-12-18T17:20:11;25.33;;;16.57;;
13238;SDS011;6686;51.292;4.166;2022-12-18T17:23:01;31.13;;;16.87;;
13238;SDS011;6686;51.292;4.166;2022-12-18T17:25:46;27.23;;;17.20;;
13238;SDS011;6686;51.292;4.166;2022-12-18T17:28:32;26.27;;;17.13;;
13238;SDS011;6686;51.292;4.166;2022-12-18T17:31:24;28.43;;;17.47;;
13238;SDS011;6686;51.292;4.166;2022-12-18T17:34:15;27.70;;;17.00;;
13238;SDS011;6686;51.292;4.166;2022-12-18T17:37:01;33.92;;;22.23;;
13238;SDS011;6686;51.292;4.166;2022-12-18T17:39:47;32.63;;;20.13;;
13238;SDS011;6686;51.292;4.166;2022-12-18T17:42:32;30.20;;;19.37;;
13238;SDS011;6686;51.292;4.166;2022-12-18T17:45:18;30.13;;;17.83;;
13238;SDS011;6686;51.292;4.166;2022-12-18T17:48:04;30.37;;;17.93;;
13238;SDS011;6686;51.292;4.166;2022-12-18T17:50:50;26.60;;;17.33;;
13238;SDS011;6686;51.292;4.166;2022-12-18T17:53:36;28.93;;;18.27;;
13238;SDS011;6686;51.292;4.166;2022-12-18T17:56:22;29.33;;;19.03;;
13238;SDS011;6686;51.292;4.166;2022-12-18T17:59:07;29.40;;;18.17;;